Terminal Aerodrome Forecast
Issued by NWS

Home | Current Version | Previous Version | Text Only | Print | Product List | Glossary On
Versions: 1 2 3 4 5 6 7 8 9 10 11 12
000
FTUS42 TJSJ 292300 RRA
TAFJBQ
TAF
TJBQ 292339Z 3000/3024 09009KT P6SM SCT025 SCT080
     FM300300 12002KT P6SM FEW030
     FM301500 07015KT P6SM VCSH SCT025 SCT050
      AMD NOT SKED 3002/3011=

USA.gov is the U.S. government's official web portal to all federal, state and local government web resources and services.